sensor_id;sensor_type;location;lat;lon;timestamp;P1;durP1;ratioP1;P2;durP2;ratioP2
13805;SDS011;6974;53.606;9.872;2022-11-15T00:01:59;34.93;;;25.77;;
13805;SDS011;6974;53.606;9.872;2022-11-15T00:04:30;30.30;;;25.50;;
13805;SDS011;6974;53.606;9.872;2022-11-15T00:06:57;31.60;;;24.23;;
13805;SDS011;6974;53.606;9.872;2022-11-15T00:09:24;30.07;;;25.13;;
13805;SDS011;6974;53.606;9.872;2022-11-15T00:11:51;29.83;;;24.50;;
13805;SDS011;6974;53.606;9.872;2022-11-15T00:14:17;31.77;;;24.17;;
13805;SDS011;6974;53.606;9.872;2022-11-15T00:16:45;30.93;;;24.13;;
13805;SDS011;6974;53.606;9.872;2022-11-15T00:19:12;34.13;;;25.67;;
13805;SDS011;6974;53.606;9.872;2022-11-15T00:21:40;29.27;;;24.73;;
13805;SDS011;6974;53.606;9.872;2022-11-15T00:24:07;34.70;;;24.93;;
13805;SDS011;6974;53.606;9.872;2022-11-15T00:26:34;31.47;;;25.67;;
13805;SDS011;6974;53.606;9.872;2022-11-15T00:29:00;32.13;;;25.30;;
13805;SDS011;6974;53.606;9.872;2022-11-15T00:31:27;29.73;;;24.80;;
13805;SDS011;6974;53.606;9.872;2022-11-15T00:33:54;32.60;;;23.63;;
13805;SDS011;6974;53.606;9.872;2022-11-15T00:36:21;31.03;;;24.83;;
13805;SDS011;6974;53.606;9.872;2022-11-15T00:38:49;31.10;;;25.77;;
13805;SDS011;6974;53.606;9.872;2022-11-15T00:41:16;29.23;;;24.03;;
13805;SDS011;6974;53.606;9.872;2022-11-15T00:43:43;29.77;;;24.00;;
13805;SDS011;6974;53.606;9.872;2022-11-15T00:46:10;32.27;;;25.40;;
13805;SDS011;6974;53.606;9.872;2022-11-15T00:48:37;29.40;;;24.13;;
13805;SDS011;6974;53.606;9.872;2022-11-15T00:51:04;28.53;;;23.97;;
13805;SDS011;6974;53.606;9.872;2022-11-15T00:53:31;30.53;;;24.27;;
13805;SDS011;6974;53.606;9.872;2022-11-15T00:55:59;29.83;;;23.67;;
13805;SDS011;6974;53.606;9.872;2022-11-15T00:58:26;30.47;;;24.13;;
13805;SDS011;6974;53.606;9.872;2022-11-15T01:00:52;29.70;;;23.57;;
13805;SDS011;6974;53.606;9.872;2022-11-15T01:03:19;30.77;;;23.77;;
13805;SDS011;6974;53.606;9.872;2022-11-15T01:05:46;30.10;;;24.70;;
13805;SDS011;6974;53.606;9.872;2022-11-15T01:08:14;28.67;;;24.17;;
13805;SDS011;6974;53.606;9.872;2022-11-15T01:10:41;28.73;;;23.93;;
13805;SDS011;6974;53.606;9.872;2022-11-15T01:13:09;27.77;;;22.90;;
13805;SDS011;6974;53.606;9.872;2022-11-15T01:15:38;29.67;;;23.90;;
13805;SDS011;6974;53.606;9.872;2022-11-15T01:18:06;30.40;;;24.20;;
13805;SDS011;6974;53.606;9.872;2022-11-15T01:20:33;28.47;;;24.17;;
13805;SDS011;6974;53.606;9.872;2022-11-15T01:23:00;29.93;;;24.00;;
13805;SDS011;6974;53.606;9.872;2022-11-15T01:25:27;29.63;;;23.57;;
13805;SDS011;6974;53.606;9.872;2022-11-15T01:27:54;27.90;;;23.87;;
13805;SDS011;6974;53.606;9.872;2022-11-15T01:30:22;29.97;;;23.33;;
13805;SDS011;6974;53.606;9.872;2022-11-15T01:32:49;26.77;;;22.53;;
13805;SDS011;6974;53.606;9.872;2022-11-15T01:35:16;26.27;;;22.67;;
13805;SDS011;6974;53.606;9.872;2022-11-15T01:37:43;29.20;;;23.27;;
13805;SDS011;6974;53.606;9.872;2022-11-15T01:40:10;28.93;;;23.10;;
13805;SDS011;6974;53.606;9.872;2022-11-15T01:42:37;29.17;;;23.20;;
13805;SDS011;6974;53.606;9.872;2022-11-15T01:45:04;27.40;;;22.17;;
13805;SDS011;6974;53.606;9.872;2022-11-15T01:47:35;27.03;;;22.83;;
13805;SDS011;6974;53.606;9.872;2022-11-15T01:50:06;28.07;;;22.33;;
13805;SDS011;6974;53.606;9.872;2022-11-15T01:52:36;26.33;;;22.67;;
13805;SDS011;6974;53.606;9.872;2022-11-15T01:55:06;28.23;;;23.17;;
13805;SDS011;6974;53.606;9.872;2022-11-15T01:57:36;28.77;;;23.37;;
13805;SDS011;6974;53.606;9.872;2022-11-15T02:00:04;29.10;;;21.80;;
13805;SDS011;6974;53.606;9.872;2022-11-15T02:02:33;27.13;;;22.83;;
13805;SDS011;6974;53.606;9.872;2022-11-15T02:05:02;27.40;;;21.57;;
13805;SDS011;6974;53.606;9.872;2022-11-15T02:07:29;28.37;;;22.87;;
13805;SDS011;6974;53.606;9.872;2022-11-15T02:09:58;26.90;;;22.07;;
13805;SDS011;6974;53.606;9.872;2022-11-15T02:12:30;29.47;;;22.33;;
13805;SDS011;6974;53.606;9.872;2022-11-15T02:14:57;28.27;;;23.17;;
13805;SDS011;6974;53.606;9.872;2022-11-15T02:17:28;25.67;;;22.23;;
13805;SDS011;6974;53.606;9.872;2022-11-15T02:20:20;27.90;;;22.33;;
13805;SDS011;6974;53.606;9.872;2022-11-15T02:23:18;27.77;;;22.37;;
13805;SDS011;6974;53.606;9.872;2022-11-15T02:26:07;29.03;;;23.00;;
13805;SDS011;6974;53.606;9.872;2022-11-15T02:28:57;25.10;;;21.23;;
13805;SDS011;6974;53.606;9.872;2022-11-15T02:31:30;29.43;;;23.23;;
13805;SDS011;6974;53.606;9.872;2022-11-15T02:34:04;28.70;;;22.63;;
13805;SDS011;6974;53.606;9.872;2022-11-15T02:36:36;28.57;;;22.43;;
13805;SDS011;6974;53.606;9.872;2022-11-15T02:39:10;29.13;;;22.70;;
13805;SDS011;6974;53.606;9.872;2022-11-15T02:44:13;28.00;;;22.07;;
13805;SDS011;6974;53.606;9.872;2022-11-15T02:46:51;31.53;;;24.50;;
13805;SDS011;6974;53.606;9.872;2022-11-15T02:49:39;26.67;;;21.57;;
13805;SDS011;6974;53.606;9.872;2022-11-15T02:52:08;28.37;;;23.07;;
13805;SDS011;6974;53.606;9.872;2022-11-15T02:54:35;28.27;;;21.87;;
13805;SDS011;6974;53.606;9.872;2022-11-15T02:57:05;26.33;;;22.33;;
13805;SDS011;6974;53.606;9.872;2022-11-15T02:59:56;26.23;;;21.13;;
13805;SDS011;6974;53.606;9.872;2022-11-15T03:02:34;27.97;;;21.47;;
13805;SDS011;6974;53.606;9.872;2022-11-15T03:05:13;25.77;;;21.03;;
13805;SDS011;6974;53.606;9.872;2022-11-15T03:07:48;26.90;;;21.03;;
13805;SDS011;6974;53.606;9.872;2022-11-15T03:10:20;29.20;;;22.53;;
13805;SDS011;6974;53.606;9.872;2022-11-15T03:12:54;27.37;;;21.87;;
13805;SDS011;6974;53.606;9.872;2022-11-15T03:15:26;26.03;;;21.00;;
13805;SDS011;6974;53.606;9.872;2022-11-15T03:17:59;25.73;;;21.10;;
13805;SDS011;6974;53.606;9.872;2022-11-15T03:20:30;26.57;;;21.80;;
13805;SDS011;6974;53.606;9.872;2022-11-15T03:23:00;29.87;;;22.30;;
13805;SDS011;6974;53.606;9.872;2022-11-15T03:25:30;25.93;;;21.37;;
13805;SDS011;6974;53.606;9.872;2022-11-15T03:28:01;27.83;;;21.70;;
13805;SDS011;6974;53.606;9.872;2022-11-15T03:30:32;25.10;;;20.27;;
13805;SDS011;6974;53.606;9.872;2022-11-15T03:33:02;26.50;;;21.50;;
13805;SDS011;6974;53.606;9.872;2022-11-15T03:35:32;25.30;;;19.73;;
13805;SDS011;6974;53.606;9.872;2022-11-15T03:38:06;26.23;;;20.67;;
13805;SDS011;6974;53.606;9.872;2022-11-15T03:40:38;26.93;;;21.37;;
13805;SDS011;6974;53.606;9.872;2022-11-15T03:43:09;27.60;;;20.50;;
13805;SDS011;6974;53.606;9.872;2022-11-15T03:45:43;25.73;;;21.07;;
13805;SDS011;6974;53.606;9.872;2022-11-15T03:48:18;25.33;;;20.13;;
13805;SDS011;6974;53.606;9.872;2022-11-15T03:50:49;24.03;;;20.20;;
13805;SDS011;6974;53.606;9.872;2022-11-15T03:53:16;23.80;;;20.67;;
13805;SDS011;6974;53.606;9.872;2022-11-15T03:55:43;27.07;;;20.13;;
13805;SDS011;6974;53.606;9.872;2022-11-15T03:58:10;25.77;;;20.13;;
13805;SDS011;6974;53.606;9.872;2022-11-15T04:00:38;24.30;;;20.37;;
13805;SDS011;6974;53.606;9.872;2022-11-15T04:03:05;26.03;;;21.57;;
13805;SDS011;6974;53.606;9.872;2022-11-15T04:05:35;26.40;;;21.33;;
13805;SDS011;6974;53.606;9.872;2022-11-15T04:08:02;25.00;;;20.30;;
13805;SDS011;6974;53.606;9.872;2022-11-15T04:10:30;23.17;;;18.63;;
13805;SDS011;6974;53.606;9.872;2022-11-15T04:12:57;25.50;;;20.37;;
13805;SDS011;6974;53.606;9.872;2022-11-15T04:15:24;23.93;;;19.80;;
13805;SDS011;6974;53.606;9.872;2022-11-15T04:17:52;24.53;;;19.47;;
13805;SDS011;6974;53.606;9.872;2022-11-15T04:20:22;23.57;;;19.97;;
13805;SDS011;6974;53.606;9.872;2022-11-15T04:23:10;24.47;;;20.87;;
13805;SDS011;6974;53.606;9.872;2022-11-15T04:25:57;23.60;;;20.10;;
13805;SDS011;6974;53.606;9.872;2022-11-15T04:28:26;23.93;;;19.70;;
13805;SDS011;6974;53.606;9.872;2022-11-15T04:30:53;23.87;;;20.30;;
13805;SDS011;6974;53.606;9.872;2022-11-15T04:33:21;25.00;;;21.50;;
13805;SDS011;6974;53.606;9.872;2022-11-15T04:35:48;27.70;;;22.93;;
13805;SDS011;6974;53.606;9.872;2022-11-15T04:38:30;27.50;;;22.50;;
13805;SDS011;6974;53.606;9.872;2022-11-15T04:40:58;25.33;;;20.53;;
13805;SDS011;6974;53.606;9.872;2022-11-15T04:43:25;25.50;;;21.23;;
13805;SDS011;6974;53.606;9.872;2022-11-15T04:45:52;22.90;;;19.90;;
13805;SDS011;6974;53.606;9.872;2022-11-15T04:48:19;26.53;;;21.27;;
13805;SDS011;6974;53.606;9.872;2022-11-15T04:50:47;23.80;;;20.30;;
13805;SDS011;6974;53.606;9.872;2022-11-15T04:53:14;24.33;;;19.47;;
13805;SDS011;6974;53.606;9.872;2022-11-15T04:55:45;21.90;;;18.83;;
13805;SDS011;6974;53.606;9.872;2022-11-15T04:58:14;22.60;;;18.83;;
13805;SDS011;6974;53.606;9.872;2022-11-15T05:00:43;22.90;;;18.80;;
13805;SDS011;6974;53.606;9.872;2022-11-15T05:03:10;23.77;;;19.53;;
13805;SDS011;6974;53.606;9.872;2022-11-15T05:05:55;24.47;;;19.80;;
13805;SDS011;6974;53.606;9.872;2022-11-15T05:08:23;25.90;;;19.63;;
13805;SDS011;6974;53.606;9.872;2022-11-15T05:10:52;26.17;;;20.63;;
13805;SDS011;6974;53.606;9.872;2022-11-15T05:13:20;24.23;;;19.03;;
13805;SDS011;6974;53.606;9.872;2022-11-15T05:15:47;21.17;;;18.47;;
13805;SDS011;6974;53.606;9.872;2022-11-15T05:18:14;21.13;;;18.70;;
13805;SDS011;6974;53.606;9.872;2022-11-15T05:20:42;22.03;;;19.00;;
13805;SDS011;6974;53.606;9.872;2022-11-15T05:23:10;21.70;;;18.87;;
13805;SDS011;6974;53.606;9.872;2022-11-15T05:25:38;21.67;;;18.20;;
13805;SDS011;6974;53.606;9.872;2022-11-15T05:28:06;23.97;;;19.67;;
13805;SDS011;6974;53.606;9.872;2022-11-15T05:30:35;25.30;;;18.90;;
13805;SDS011;6974;53.606;9.872;2022-11-15T05:33:03;23.13;;;17.93;;
13805;SDS011;6974;53.606;9.872;2022-11-15T05:35:31;22.13;;;18.53;;
13805;SDS011;6974;53.606;9.872;2022-11-15T05:38:04;22.20;;;18.93;;
13805;SDS011;6974;53.606;9.872;2022-11-15T05:40:31;23.27;;;18.53;;
13805;SDS011;6974;53.606;9.872;2022-11-15T05:42:59;21.93;;;19.13;;
13805;SDS011;6974;53.606;9.872;2022-11-15T05:45:30;22.67;;;18.07;;
13805;SDS011;6974;53.606;9.872;2022-11-15T05:47:58;23.63;;;18.87;;
13805;SDS011;6974;53.606;9.872;2022-11-15T05:50:30;21.90;;;19.13;;
13805;SDS011;6974;53.606;9.872;2022-11-15T05:52:57;24.07;;;19.30;;
13805;SDS011;6974;53.606;9.872;2022-11-15T05:55:25;22.97;;;18.80;;
13805;SDS011;6974;53.606;9.872;2022-11-15T05:57:55;22.67;;;18.37;;
13805;SDS011;6974;53.606;9.872;2022-11-15T06:00:24;22.27;;;17.97;;
13805;SDS011;6974;53.606;9.872;2022-11-15T06:02:53;23.70;;;19.30;;
13805;SDS011;6974;53.606;9.872;2022-11-15T06:05:20;25.37;;;20.60;;
13805;SDS011;6974;53.606;9.872;2022-11-15T06:07:47;22.70;;;18.17;;
13805;SDS011;6974;53.606;9.872;2022-11-15T06:10:15;23.40;;;18.40;;
13805;SDS011;6974;53.606;9.872;2022-11-15T06:12:44;23.93;;;19.20;;
13805;SDS011;6974;53.606;9.872;2022-11-15T06:15:12;25.73;;;19.67;;
13805;SDS011;6974;53.606;9.872;2022-11-15T06:17:39;26.03;;;18.77;;
13805;SDS011;6974;53.606;9.872;2022-11-15T06:20:09;27.07;;;19.57;;
13805;SDS011;6974;53.606;9.872;2022-11-15T06:22:37;26.57;;;18.90;;
13805;SDS011;6974;53.606;9.872;2022-11-15T06:25:05;27.57;;;18.77;;
13805;SDS011;6974;53.606;9.872;2022-11-15T06:27:32;27.23;;;19.23;;
13805;SDS011;6974;53.606;9.872;2022-11-15T06:30:03;24.23;;;18.57;;
13805;SDS011;6974;53.606;9.872;2022-11-15T06:32:31;26.80;;;19.13;;
13805;SDS011;6974;53.606;9.872;2022-11-15T06:34:59;25.40;;;18.00;;
13805;SDS011;6974;53.606;9.872;2022-11-15T06:37:27;25.77;;;18.77;;
13805;SDS011;6974;53.606;9.872;2022-11-15T06:39:54;29.33;;;19.20;;
13805;SDS011;6974;53.606;9.872;2022-11-15T06:42:21;26.20;;;17.97;;
13805;SDS011;6974;53.606;9.872;2022-11-15T06:44:48;24.63;;;18.10;;
13805;SDS011;6974;53.606;9.872;2022-11-15T06:47:16;22.53;;;17.13;;
13805;SDS011;6974;53.606;9.872;2022-11-15T06:49:43;22.80;;;18.87;;
13805;SDS011;6974;53.606;9.872;2022-11-15T06:52:11;28.00;;;18.80;;
13805;SDS011;6974;53.606;9.872;2022-11-15T06:54:41;25.07;;;17.83;;
13805;SDS011;6974;53.606;9.872;2022-11-15T06:57:08;23.97;;;18.50;;
13805;SDS011;6974;53.606;9.872;2022-11-15T06:59:35;22.57;;;18.00;;
13805;SDS011;6974;53.606;9.872;2022-11-15T07:02:03;26.97;;;17.90;;
13805;SDS011;6974;53.606;9.872;2022-11-15T07:04:31;26.97;;;19.13;;
13805;SDS011;6974;53.606;9.872;2022-11-15T07:06:58;24.90;;;20.93;;
13805;SDS011;6974;53.606;9.872;2022-11-15T07:09:25;26.93;;;19.57;;
13805;SDS011;6974;53.606;9.872;2022-11-15T07:11:54;28.30;;;19.33;;
13805;SDS011;6974;53.606;9.872;2022-11-15T07:14:21;26.70;;;18.57;;
13805;SDS011;6974;53.606;9.872;2022-11-15T07:16:48;29.63;;;19.60;;
13805;SDS011;6974;53.606;9.872;2022-11-15T07:19:15;23.20;;;18.27;;
13805;SDS011;6974;53.606;9.872;2022-11-15T07:21:54;25.43;;;18.33;;
13805;SDS011;6974;53.606;9.872;2022-11-15T07:24:21;28.40;;;19.97;;
13805;SDS011;6974;53.606;9.872;2022-11-15T07:26:49;27.03;;;19.60;;
13805;SDS011;6974;53.606;9.872;2022-11-15T07:29:18;24.90;;;18.77;;
13805;SDS011;6974;53.606;9.872;2022-11-15T07:31:45;21.30;;;16.97;;
13805;SDS011;6974;53.606;9.872;2022-11-15T07:34:13;23.40;;;18.00;;
13805;SDS011;6974;53.606;9.872;2022-11-15T07:36:40;21.47;;;17.63;;
13805;SDS011;6974;53.606;9.872;2022-11-15T07:39:07;21.40;;;17.80;;
13805;SDS011;6974;53.606;9.872;2022-11-15T07:41:34;24.40;;;17.97;;
13805;SDS011;6974;53.606;9.872;2022-11-15T07:44:02;22.87;;;18.10;;
13805;SDS011;6974;53.606;9.872;2022-11-15T07:46:30;25.23;;;16.97;;
13805;SDS011;6974;53.606;9.872;2022-11-15T07:48:58;24.37;;;18.83;;
13805;SDS011;6974;53.606;9.872;2022-11-15T07:51:25;26.67;;;19.10;;
13805;SDS011;6974;53.606;9.872;2022-11-15T07:53:52;25.63;;;18.70;;
13805;SDS011;6974;53.606;9.872;2022-11-15T07:56:20;25.00;;;18.33;;
13805;SDS011;6974;53.606;9.872;2022-11-15T07:58:49;26.73;;;18.90;;
13805;SDS011;6974;53.606;9.872;2022-11-15T08:01:16;26.43;;;18.87;;
13805;SDS011;6974;53.606;9.872;2022-11-15T08:03:46;29.40;;;19.53;;
13805;SDS011;6974;53.606;9.872;2022-11-15T08:06:13;27.83;;;19.33;;
13805;SDS011;6974;53.606;9.872;2022-11-15T08:08:40;22.40;;;17.33;;
13805;SDS011;6974;53.606;9.872;2022-11-15T08:11:07;25.93;;;17.83;;
13805;SDS011;6974;53.606;9.872;2022-11-15T08:13:37;27.13;;;18.53;;
13805;SDS011;6974;53.606;9.872;2022-11-15T08:16:06;25.17;;;17.37;;
13805;SDS011;6974;53.606;9.872;2022-11-15T08:18:34;19.87;;;16.47;;
13805;SDS011;6974;53.606;9.872;2022-11-15T08:21:04;23.70;;;18.07;;
13805;SDS011;6974;53.606;9.872;2022-11-15T08:23:31;19.80;;;16.63;;
13805;SDS011;6974;53.606;9.872;2022-11-15T08:26:02;22.50;;;17.67;;
13805;SDS011;6974;53.606;9.872;2022-11-15T08:28:30;25.40;;;18.13;;
13805;SDS011;6974;53.606;9.872;2022-11-15T08:30:58;23.73;;;17.50;;
13805;SDS011;6974;53.606;9.872;2022-11-15T08:33:25;26.30;;;18.40;;
13805;SDS011;6974;53.606;9.872;2022-11-15T08:35:55;20.27;;;17.73;;
13805;SDS011;6974;53.606;9.872;2022-11-15T08:38:25;22.93;;;18.50;;
13805;SDS011;6974;53.606;9.872;2022-11-15T08:40:58;19.83;;;17.33;;
13805;SDS011;6974;53.606;9.872;2022-11-15T08:43:27;20.93;;;17.57;;
13805;SDS011;6974;53.606;9.872;2022-11-15T08:45:55;20.37;;;17.07;;
13805;SDS011;6974;53.606;9.872;2022-11-15T08:48:22;25.87;;;16.37;;
13805;SDS011;6974;53.606;9.872;2022-11-15T08:50:48;22.87;;;18.03;;
13805;SDS011;6974;53.606;9.872;2022-11-15T08:53:19;24.30;;;17.73;;
13805;SDS011;6974;53.606;9.872;2022-11-15T08:55:47;23.33;;;17.07;;
13805;SDS011;6974;53.606;9.872;2022-11-15T08:58:14;22.57;;;17.47;;
13805;SDS011;6974;53.606;9.872;2022-11-15T09:00:41;24.60;;;17.10;;
13805;SDS011;6974;53.606;9.872;2022-11-15T09:03:07;24.13;;;17.27;;
13805;SDS011;6974;53.606;9.872;2022-11-15T09:05:35;25.00;;;17.10;;
13805;SDS011;6974;53.606;9.872;2022-11-15T09:08:03;22.10;;;17.47;;
13805;SDS011;6974;53.606;9.872;2022-11-15T09:10:30;23.60;;;16.47;;
13805;SDS011;6974;53.606;9.872;2022-11-15T09:12:59;18.77;;;16.17;;
13805;SDS011;6974;53.606;9.872;2022-11-15T09:15:25;21.27;;;16.23;;
13805;SDS011;6974;53.606;9.872;2022-11-15T09:17:52;22.50;;;16.17;;
13805;SDS011;6974;53.606;9.872;2022-11-15T09:20:19;20.70;;;16.37;;
13805;SDS011;6974;53.606;9.872;2022-11-15T09:22:46;22.70;;;17.03;;
13805;SDS011;6974;53.606;9.872;2022-11-15T09:25:13;20.40;;;15.30;;
13805;SDS011;6974;53.606;9.872;2022-11-15T09:27:40;21.67;;;16.30;;
13805;SDS011;6974;53.606;9.872;2022-11-15T09:30:08;21.27;;;15.70;;
13805;SDS011;6974;53.606;9.872;2022-11-15T09:32:36;19.43;;;16.43;;
13805;SDS011;6974;53.606;9.872;2022-11-15T09:35:03;20.07;;;15.93;;
13805;SDS011;6974;53.606;9.872;2022-11-15T09:37:31;18.90;;;16.17;;
13805;SDS011;6974;53.606;9.872;2022-11-15T09:39:58;25.03;;;16.30;;
13805;SDS011;6974;53.606;9.872;2022-11-15T09:42:28;18.97;;;15.70;;
13805;SDS011;6974;53.606;9.872;2022-11-15T09:45:11;23.47;;;15.27;;
13805;SDS011;6974;53.606;9.872;2022-11-15T09:50:38;21.03;;;15.20;;
13805;SDS011;6974;53.606;9.872;2022-11-15T09:53:12;18.97;;;15.27;;
13805;SDS011;6974;53.606;9.872;2022-11-15T09:56:00;20.80;;;14.97;;
13805;SDS011;6974;53.606;9.872;2022-11-15T09:58:31;22.03;;;15.93;;
13805;SDS011;6974;53.606;9.872;2022-11-15T10:01:06;18.20;;;15.47;;
13805;SDS011;6974;53.606;9.872;2022-11-15T10:03:49;19.97;;;15.33;;
13805;SDS011;6974;53.606;9.872;2022-11-15T10:06:18;20.27;;;15.37;;
13805;SDS011;6974;53.606;9.872;2022-11-15T10:08:54;20.53;;;15.63;;
13805;SDS011;6974;53.606;9.872;2022-11-15T10:11:25;17.93;;;15.47;;
13805;SDS011;6974;53.606;9.872;2022-11-15T10:13:56;19.57;;;15.50;;
13805;SDS011;6974;53.606;9.872;2022-11-15T10:19:34;20.97;;;14.50;;
13805;SDS011;6974;53.606;9.872;2022-11-15T10:22:12;19.13;;;15.13;;
13805;SDS011;6974;53.606;9.872;2022-11-15T10:24:50;18.67;;;15.03;;
13805;SDS011;6974;53.606;9.872;2022-11-15T10:27:19;18.87;;;16.10;;
13805;SDS011;6974;53.606;9.872;2022-11-15T10:29:47;20.23;;;15.60;;
13805;SDS011;6974;53.606;9.872;2022-11-15T10:32:17;21.63;;;16.07;;
13805;SDS011;6974;53.606;9.872;2022-11-15T10:34:47;18.73;;;14.53;;
13805;SDS011;6974;53.606;9.872;2022-11-15T10:37:15;19.90;;;16.43;;
13805;SDS011;6974;53.606;9.872;2022-11-15T10:40:02;20.10;;;15.73;;
13805;SDS011;6974;53.606;9.872;2022-11-15T10:42:30;18.97;;;16.10;;
13805;SDS011;6974;53.606;9.872;2022-11-15T10:44:57;17.03;;;15.00;;
13805;SDS011;6974;53.606;9.872;2022-11-15T10:47:26;17.83;;;14.43;;
13805;SDS011;6974;53.606;9.872;2022-11-15T10:49:56;21.53;;;15.60;;
13805;SDS011;6974;53.606;9.872;2022-11-15T10:52:25;20.53;;;16.07;;
13805;SDS011;6974;53.606;9.872;2022-11-15T10:54:53;19.63;;;14.83;;
13805;SDS011;6974;53.606;9.872;2022-11-15T10:57:26;20.73;;;15.03;;
13805;SDS011;6974;53.606;9.872;2022-11-15T10:59:56;21.10;;;15.20;;
13805;SDS011;6974;53.606;9.872;2022-11-15T11:02:35;19.00;;;14.60;;
13805;SDS011;6974;53.606;9.872;2022-11-15T11:05:04;17.40;;;14.50;;
13805;SDS011;6974;53.606;9.872;2022-11-15T11:07:33;17.17;;;14.67;;
13805;SDS011;6974;53.606;9.872;2022-11-15T11:10:03;22.10;;;15.17;;
13805;SDS011;6974;53.606;9.872;2022-11-15T11:12:42;18.07;;;14.57;;
13805;SDS011;6974;53.606;9.872;2022-11-15T11:15:10;19.13;;;14.17;;
13805;SDS011;6974;53.606;9.872;2022-11-15T11:17:45;19.80;;;14.43;;
13805;SDS011;6974;53.606;9.872;2022-11-15T11:20:24;17.93;;;15.03;;
13805;SDS011;6974;53.606;9.872;2022-11-15T11:25:46;17.17;;;14.37;;
13805;SDS011;6974;53.606;9.872;2022-11-15T11:28:24;18.17;;;13.70;;
13805;SDS011;6974;53.606;9.872;2022-11-15T11:31:01;19.57;;;14.60;;
13805;SDS011;6974;53.606;9.872;2022-11-15T11:33:41;16.40;;;13.57;;
13805;SDS011;6974;53.606;9.872;2022-11-15T11:36:16;17.50;;;14.47;;
13805;SDS011;6974;53.606;9.872;2022-11-15T11:38:56;16.00;;;13.10;;
13805;SDS011;6974;53.606;9.872;2022-11-15T11:41:42;17.83;;;14.23;;
13805;SDS011;6974;53.606;9.872;2022-11-15T11:44:18;16.27;;;13.47;;
13805;SDS011;6974;53.606;9.872;2022-11-15T11:46:58;16.90;;;14.10;;
13805;SDS011;6974;53.606;9.872;2022-11-15T11:49:29;17.33;;;13.43;;
13805;SDS011;6974;53.606;9.872;2022-11-15T11:52:02;14.70;;;12.80;;
13805;SDS011;6974;53.606;9.872;2022-11-15T11:54:37;14.77;;;13.13;;
13805;SDS011;6974;53.606;9.872;2022-11-15T11:57:11;16.70;;;13.03;;
13805;SDS011;6974;53.606;9.872;2022-11-15T11:59:43;15.80;;;12.83;;
13805;SDS011;6974;53.606;9.872;2022-11-15T12:02:18;17.03;;;12.73;;
13805;SDS011;6974;53.606;9.872;2022-11-15T12:04:53;16.93;;;12.67;;
13805;SDS011;6974;53.606;9.872;2022-11-15T12:07:27;18.37;;;13.03;;
13805;SDS011;6974;53.606;9.872;2022-11-15T12:09:58;15.60;;;13.00;;
13805;SDS011;6974;53.606;9.872;2022-11-15T12:12:30;16.67;;;14.33;;
13805;SDS011;6974;53.606;9.872;2022-11-15T12:15:03;15.90;;;12.07;;
13805;SDS011;6974;53.606;9.872;2022-11-15T12:17:38;17.17;;;12.90;;
13805;SDS011;6974;53.606;9.872;2022-11-15T12:20:14;16.27;;;12.67;;
13805;SDS011;6974;53.606;9.872;2022-11-15T12:22:44;14.27;;;12.63;;
13805;SDS011;6974;53.606;9.872;2022-11-15T12:25:16;16.40;;;13.07;;
13805;SDS011;6974;53.606;9.872;2022-11-15T12:27:48;14.97;;;12.70;;
13805;SDS011;6974;53.606;9.872;2022-11-15T12:30:19;13.67;;;12.17;;
13805;SDS011;6974;53.606;9.872;2022-11-15T12:32:49;14.27;;;12.77;;
13805;SDS011;6974;53.606;9.872;2022-11-15T12:35:32;16.00;;;13.00;;
13805;SDS011;6974;53.606;9.872;2022-11-15T12:38:03;14.33;;;11.73;;
13805;SDS011;6974;53.606;9.872;2022-11-15T12:40:31;18.53;;;12.23;;
13805;SDS011;6974;53.606;9.872;2022-11-15T12:43:00;14.67;;;12.03;;
13805;SDS011;6974;53.606;9.872;2022-11-15T12:45:52;15.30;;;11.83;;
13805;SDS011;6974;53.606;9.872;2022-11-15T12:52:03;17.27;;;12.00;;
13805;SDS011;6974;53.606;9.872;2022-11-15T12:54:53;15.47;;;11.30;;
13805;SDS011;6974;53.606;9.872;2022-11-15T12:57:32;15.07;;;11.80;;
13805;SDS011;6974;53.606;9.872;2022-11-15T13:00:04;17.73;;;12.23;;
13805;SDS011;6974;53.606;9.872;2022-11-15T13:02:47;15.73;;;12.00;;
13805;SDS011;6974;53.606;9.872;2022-11-15T13:08:37;14.63;;;11.90;;
13805;SDS011;6974;53.606;9.872;2022-11-15T13:17:10;15.80;;;12.00;;
13805;SDS011;6974;53.606;9.872;2022-11-15T13:19:52;15.93;;;11.60;;
13805;SDS011;6974;53.606;9.872;2022-11-15T13:22:23;15.77;;;11.23;;
13805;SDS011;6974;53.606;9.872;2022-11-15T13:25:15;12.70;;;11.17;;
13805;SDS011;6974;53.606;9.872;2022-11-15T13:27:45;14.43;;;11.17;;
13805;SDS011;6974;53.606;9.872;2022-11-15T13:30:15;17.10;;;11.17;;
13805;SDS011;6974;53.606;9.872;2022-11-15T13:32:46;17.00;;;10.50;;
13805;SDS011;6974;53.606;9.872;2022-11-15T13:35:18;13.17;;;10.97;;
13805;SDS011;6974;53.606;9.872;2022-11-15T13:37:47;11.60;;;10.40;;
13805;SDS011;6974;53.606;9.872;2022-11-15T13:40:23;12.67;;;10.33;;
13805;SDS011;6974;53.606;9.872;2022-11-15T13:42:55;17.07;;;10.50;;
13805;SDS011;6974;53.606;9.872;2022-11-15T13:45:23;13.73;;;11.57;;
13805;SDS011;6974;53.606;9.872;2022-11-15T13:47:52;12.37;;;10.47;;
13805;SDS011;6974;53.606;9.872;2022-11-15T13:50:21;13.43;;;10.90;;
13805;SDS011;6974;53.606;9.872;2022-11-15T13:52:49;12.57;;;10.67;;
13805;SDS011;6974;53.606;9.872;2022-11-15T13:55:18;14.50;;;10.90;;
13805;SDS011;6974;53.606;9.872;2022-11-15T13:57:49;11.97;;;10.30;;
13805;SDS011;6974;53.606;9.872;2022-11-15T14:00:31;13.10;;;10.90;;
13805;SDS011;6974;53.606;9.872;2022-11-15T14:03:05;12.33;;;10.10;;
13805;SDS011;6974;53.606;9.872;2022-11-15T14:05:40;15.17;;;10.50;;
13805;SDS011;6974;53.606;9.872;2022-11-15T14:08:13;13.10;;;10.17;;
13805;SDS011;6974;53.606;9.872;2022-11-15T14:10:49;14.17;;;11.27;;
13805;SDS011;6974;53.606;9.872;2022-11-15T14:13:35;13.17;;;11.23;;
13805;SDS011;6974;53.606;9.872;2022-11-15T14:16:17;14.90;;;12.40;;
13805;SDS011;6974;53.606;9.872;2022-11-15T14:18:46;13.57;;;11.10;;
13805;SDS011;6974;53.606;9.872;2022-11-15T14:21:15;11.03;;;9.93;;
13805;SDS011;6974;53.606;9.872;2022-11-15T14:23:42;13.00;;;10.30;;
13805;SDS011;6974;53.606;9.872;2022-11-15T14:26:11;14.10;;;10.93;;
13805;SDS011;6974;53.606;9.872;2022-11-15T14:28:54;12.10;;;10.40;;
13805;SDS011;6974;53.606;9.872;2022-11-15T14:31:21;14.93;;;10.40;;
13805;SDS011;6974;53.606;9.872;2022-11-15T14:33:48;14.47;;;10.37;;
13805;SDS011;6974;53.606;9.872;2022-11-15T14:36:16;13.07;;;10.37;;
13805;SDS011;6974;53.606;9.872;2022-11-15T14:38:44;12.37;;;10.83;;
13805;SDS011;6974;53.606;9.872;2022-11-15T14:43:41;12.40;;;10.30;;
13805;SDS011;6974;53.606;9.872;2022-11-15T14:46:10;15.30;;;10.47;;
13805;SDS011;6974;53.606;9.872;2022-11-15T14:48:38;11.53;;;9.80;;
13805;SDS011;6974;53.606;9.872;2022-11-15T14:51:09;13.07;;;10.43;;
13805;SDS011;6974;53.606;9.872;2022-11-15T14:53:38;12.07;;;10.30;;
13805;SDS011;6974;53.606;9.872;2022-11-15T14:56:06;12.03;;;9.77;;
13805;SDS011;6974;53.606;9.872;2022-11-15T14:58:34;12.23;;;10.27;;
13805;SDS011;6974;53.606;9.872;2022-11-15T15:01:02;11.30;;;10.10;;
13805;SDS011;6974;53.606;9.872;2022-11-15T15:03:38;13.13;;;10.17;;
13805;SDS011;6974;53.606;9.872;2022-11-15T15:06:06;14.07;;;9.80;;
13805;SDS011;6974;53.606;9.872;2022-11-15T15:08:34;13.33;;;10.60;;
13805;SDS011;6974;53.606;9.872;2022-11-15T15:11:02;13.23;;;10.70;;
13805;SDS011;6974;53.606;9.872;2022-11-15T15:13:31;13.10;;;10.87;;
13805;SDS011;6974;53.606;9.872;2022-11-15T15:15:58;12.00;;;10.13;;
13805;SDS011;6974;53.606;9.872;2022-11-15T15:18:27;10.90;;;9.80;;
13805;SDS011;6974;53.606;9.872;2022-11-15T15:20:55;11.20;;;10.00;;
13805;SDS011;6974;53.606;9.872;2022-11-15T15:23:25;12.77;;;10.17;;